Portada
METAR-TAF:

METAR-TAF

Aeroports :

Katherine, Austràlia

latitud: 14-26S, longitud: 132-16E, altitud: 108 m

Observació

L'informe es va fer fa 20 minuts, a les 11:00 UTC
Vent calma
Temperatura 32°C
Humitat 28%
Pressió 1006 hPa
Visibilitat 10 km o més

METAR: YPTN 071100Z AUTO 00000KT 9999 // NCD 32/11 Q1006

Hora: 20:50 (11:20 UTC)

Pronòstic

L'informe es va fer fa 6 hores i 12 minuts, a les 05:08 UTC
Pronòstic vàlid del 07 a les 06 UTC al 08 a les 06 UTC
Vent 8 kt del Est/Nord-Est
Visibilitat 10 km o més
sense núvols per sota de 1500 mi sense presència de cumulonimbus.
A partir de les 07 a les 1400 UTC
Vent 10 kt del Nord/Nord-Oest
Visibilitat 10 km o més
sense núvols per sota de 1500 mi sense presència de cumulonimbus.

TAF: YPTN 070508Z 0706/0806 06008KT CAVOK FM071400 34010KT CAVOK

Observacions i pronòstics meteorològics de més de 4000 aeroports (METAR i TAF).

Les estacions disponibles són els punts grocs i vermells al mapa.

Posi el ratolí al punt desitjat per veure el nom de l'estació.

Feu clic per veure les observacions i els pronòstics meteorològics.

Per canviar el mapa: feu clic els botons verds amb una creu de color negre per apropar; al botó verd amb un guió per allunyar la imatge; o en les fletxes verdes per a mapes adjacents.


METAR-TAF: